Flight Track Log - Related Links

Times and Time Zones

All times are in EDT time to prevent confusion due to time zone crossing. See the N996BL flight status page for this flight to view local times or setup timezone preferences in your user account.

Time Position Orientation Groundspeed Altitude Reporting Facility
EDT Latitude Longitude Course Direction KTS MPH feet Rate Location/Type
Thu 06:41:21 PM 29.6353 -95.2867 146° Southeast 148 170 500  Level Houston Center
Thu 06:41:58 PM 29.6169 -95.2722 146° Southeast 152 175 1,500 1,653 Climbing Houston Center
Thu 06:42:59 PM 29.6386 -95.2333 57° Northeast 142 163 3,200 1,623 Climbing Houston Center
Thu 06:44:00 PM 29.6758 -95.2264 North 159 183 4,800 896 Climbing Houston Center
Thu 06:45:13 PM 29.7289 -95.2675 326° Northwest 188 216 5,200 1,122 Climbing Houston Center
Thu 06:46:03 PM 29.7642 -95.2975 324° Northwest 186 214 7,100 1,892 Climbing Houston Center
Thu 06:47:04 PM 29.8086 -95.2994 358° North 160 184 8,700 1,525 Climbing Houston Center
Thu 06:48:05 PM 29.8558 -95.2889 11° North 171 197 10,200 1,426 Climbing Houston Center
Thu 06:49:06 PM 29.9056 -95.2806 North 177 204 11,600 1,475 Climbing Houston Center
Thu 06:50:07 PM 29.9592 -95.2714 North 188 216 13,200 1,426 Climbing Houston Center
Thu 06:51:08 PM 30.0131 -95.2625 North 194 223 14,500 777 Climbing Houston Center
Thu 06:52:26 PM 30.0842 -95.2489 North 199 229 15,000 246 Climbing Houston Center
Thu 06:53:10 PM 30.1325 -95.2142 32° Northeast 254 292 15,000  Level Houston Center
Thu 06:54:30 PM 30.2047 -95.1597 33° Northeast 249 287 15,000  Level Houston Center
Thu 06:55:32 PM 30.2639 -95.1142 34° Northeast 254 292 15,000  Level Houston Center
Thu 06:56:34 PM 30.3250 -95.0683 33° Northeast 257 296 15,000  Level Houston Center
Thu 06:57:36 PM 30.3961 -95.0131 34° Northeast 258 297 15,000  Level Houston Center
Thu 06:58:37 PM 30.4547 -94.9672 34° Northeast 256 295 15,000  Level Houston Center
Thu 06:59:39 PM 30.5139 -94.9211 34° Northeast 254 292 15,000  Level Houston Center
Thu 07:00:41 PM 30.5736 -94.8750 34° Northeast 256 295 15,000  Level Houston Center
Thu 07:01:43 PM 30.6342 -94.8289 33° Northeast 258 297 15,000  Level Houston Center
Thu 07:02:45 PM 30.7067 -94.7744 33° Northeast 259 298 15,000  Level Houston Center
Thu 07:03:47 PM 30.7658 -94.7283 34° Northeast 258 297 15,000  Level Houston Center
Thu 07:04:49 PM 30.8097 -94.6583 54° Northeast 274 315 15,000  Level Houston Center
Thu 07:05:50 PM 30.8517 -94.5856 56° Northeast 271 312 15,000  Level Houston Center
Thu 07:06:52 PM 30.8900 -94.5125 59° Northeast 269 310 15,000  Level Houston Center
Thu 07:07:54 PM 30.9297 -94.4394 58° Northeast 268 308 15,000  Level Houston Center
Thu 07:08:56 PM 30.9761 -94.3514 58° Northeast 267 307 15,000  Level Houston Center
Thu 07:09:58 PM 31.0150 -94.2786 58° Northeast 266 306 15,000  Level Houston Center
Thu 07:11:00 PM 31.0531 -94.2067 58° Northeast 263 303 15,000  Level Houston Center
Thu 07:12:02 PM 31.0928 -94.1322 58° Northeast 269 310 15,000 -532 Level Houston Center
Thu 07:13:04 PM 31.1325 -94.0558 59° Northeast 274 315 13,900 -1,065 Descending Houston Center
Thu 07:14:06 PM 31.1747 -93.9772 58° Northeast 283 326 12,800 -1,161 Descending Houston Center
Thu 07:15:08 PM 31.2167 -93.8972 58° Northeast 274 315 11,500 -878 Descending Houston Center
Thu 07:16:09 PM 31.2606 -93.8144 58° Northeast 269 310 11,000 -244 Descending Houston Center
Thu 07:17:11 PM 31.2950 -93.7475 59° Northeast 249 287 11,000  Level Houston Center
Thu 07:18:13 PM 31.3311 -93.6814 57° Northeast 242 278 11,000  Level Houston Center
Thu 07:19:15 PM 31.3653 -93.6150 59° Northeast 240 276 11,000 -350 Level Houston Center
Thu 07:20:13 PM 31.4017 -93.5428 59° Northeast 241 277 10,300 -1,008 Descending Houston Center
Thu 07:21:14 PM 31.4394 -93.4714 58° Northeast 265 305 9,000 -1,339 Descending Houston Center
Thu 07:22:14 PM 31.4769 -93.4000 58° Northeast 251 289 7,600 -1,256 Descending Houston Center
Thu 07:23:23 PM 31.5150 -93.3272 58° Northeast 245 282 6,300 -1,228 Descending Houston Center
Thu 07:24:21 PM 31.5483 -93.2622 59° Northeast 233 268 5,000 -1,261 Descending Houston Center
Thu 07:25:22 PM 31.5819 -93.1983 58° Northeast 222 255 3,800 -1,180 Descending Houston Center
Thu 07:27:00 PM 31.6637 -93.1457 55° Northeast  Level Estimated
Thu 07:34:00 PM 31.7333 -93.0833 55° Northeast  Level FlightAware Approximate
Thu 07:35:00 PM 31.7357 -93.0991 55° Northeast  Level Estimated

Login

Don't have an account? Register now (free) for customized features, flight alerts, and more!